Time;durP1;ratioP1;P1;durP2;ratioP2;P2;SDS_P1;SDS_P2;PMS_P1;PMS_P2;Temp;Humidity;BMP_temperature;BMP_pressure;BME280_temperature;BME280_humidity;BME280_pressure;Samples;Min_cycle;Max_cycle;Signal;HPM_P1;HPM_P2
2021/03/21 00:01:41;;;;;;;25.42;16.58;;;6.70;99.90;;;;;;5055568;28;20279;-81
2021/03/21 00:04:10;;;;;;;28.80;18.73;;;6.70;99.90;;;;;;5037911;28;20190;-82
2021/03/21 00:06:39;;;;;;;26.92;18.20;;;6.60;99.90;;;;;;5055446;28;20195;-82
2021/03/21 00:09:06;;;;;;;28.83;19.27;;;6.70;99.90;;;;;;5037954;28;20196;-81
2021/03/21 00:11:35;;;;;;;29.45;19.52;;;6.70;99.90;;;;;;5055800;28;20215;-81
2021/03/21 00:14:04;;;;;;;30.90;19.90;;;6.70;99.90;;;;;;5055455;28;20247;-82
2021/03/21 00:16:31;;;;;;;31.48;19.55;;;6.80;99.90;;;;;;5034947;28;20238;-81
2021/03/21 00:18:57;;;;;;;31.02;21.30;;;6.70;99.90;;;;;;5067562;28;20218;-81
2021/03/21 00:21:26;;;;;;;35.13;23.17;;;6.70;99.90;;;;;;5056039;28;20519;-81
2021/03/21 00:23:57;;;;;;;39.50;23.73;;;6.60;99.90;;;;;;5030022;28;20280;-81
2021/03/21 00:26:32;;;;;;;35.15;22.40;;;6.70;99.90;;;;;;5052147;28;20215;-81
2021/03/21 00:28:59;;;;;;;34.55;23.52;;;6.70;99.90;;;;;;5055478;28;20208;-81
2021/03/21 00:31:28;;;;;;;36.67;24.10;;;6.70;99.90;;;;;;5054524;28;20304;-81
2021/03/21 00:33:53;;;;;;;40.97;26.57;;;6.60;99.90;;;;;;5055063;28;20637;-81
2021/03/21 00:36:22;;;;;;;40.67;24.02;;;6.60;99.90;;;;;;5044508;28;20431;-81
2021/03/21 00:38:53;;;;;;;37.90;23.10;;;6.60;99.90;;;;;;5055362;28;20267;-81
2021/03/21 00:41:25;;;;;;;39.10;23.90;;;6.50;99.90;;;;;;5055394;28;20192;-82
2021/03/21 00:43:55;;;;;;;36.25;23.27;;;6.50;99.90;;;;;;5054901;28;20292;-81
2021/03/21 00:46:25;;;;;;;37.20;23.05;;;6.60;99.90;;;;;;5054898;28;20199;-81
2021/03/21 00:48:52;;;;;;;41.17;25.23;;;6.60;99.90;;;;;;5037298;28;20177;-82
2021/03/21 00:51:21;;;;;;;43.10;25.05;;;6.50;99.90;;;;;;5036990;28;20223;-82
2021/03/21 00:53:47;;;;;;;41.15;24.80;;;6.60;99.90;;;;;;5047109;28;20279;-81
2021/03/21 00:56:38;;;;;;;37.60;24.93;;;6.60;99.90;;;;;;5047062;28;20272;-81
2021/03/21 00:59:05;;;;;;;37.88;24.35;;;6.70;99.90;;;;;;5054245;28;20887;-81
2021/03/21 01:01:34;;;;;;;36.80;23.85;;;6.70;99.90;;;;;;5054564;28;20242;-81
2021/03/21 01:04:01;;;;;;;35.00;22.40;;;6.70;99.90;;;;;;5054838;28;20234;-82
2021/03/21 01:06:30;;;;;;;37.90;23.77;;;6.70;99.90;;;;;;5054753;28;20287;-81
2021/03/21 01:09:06;;;;;;;37.35;23.40;;;6.70;99.90;;;;;;5054742;28;20267;-81
2021/03/21 01:11:39;;;;;;;34.85;21.27;;;6.60;99.90;;;;;;5054348;28;20192;-81
2021/03/21 01:14:07;;;;;;;35.67;21.50;;;6.60;99.90;;;;;;5036478;28;20196;-80
2021/03/21 01:16:38;;;;;;;35.25;22.73;;;6.50;99.90;;;;;;5054358;28;20180;-81
2021/03/21 01:19:19;;;;;;;34.30;21.60;;;6.60;99.90;;;;;;5037005;28;20169;-81
2021/03/21 01:21:47;;;;;;;35.03;21.85;;;6.50;99.90;;;;;;5053268;28;20180;-81
2021/03/21 01:24:15;;;;;;;36.20;21.80;;;6.50;99.90;;;;;;5053472;28;20578;-81
2021/03/21 01:26:45;;;;;;;30.85;20.02;;;6.50;99.90;;;;;;5037528;28;20527;-81
2021/03/21 01:29:14;;;;;;;36.63;22.50;;;6.40;99.90;;;;;;5054800;28;20187;-81
2021/03/21 01:31:45;;;;;;;35.92;22.35;;;6.40;99.90;;;;;;5055051;28;20297;-81
2021/03/21 01:34:16;;;;;;;36.80;22.48;;;6.30;99.90;;;;;;5054379;28;20184;-81
2021/03/21 01:36:42;;;;;;;34.08;21.40;;;6.40;99.90;;;;;;5036737;28;20169;-81
2021/03/21 01:39:18;;;;;;;34.42;22.35;;;6.50;99.90;;;;;;5053178;28;20180;-81
2021/03/21 01:42:07;;;;;;;34.08;19.92;;;6.50;99.90;;;;;;5053828;28;20185;-81
2021/03/21 01:44:33;;;;;;;33.88;22.05;;;6.50;99.90;;;;;;5036227;28;20244;-81
2021/03/21 01:47:02;;;;;;;33.75;21.55;;;6.50;99.90;;;;;;5036193;28;20192;-81
2021/03/21 01:49:41;;;;;;;32.67;20.88;;;6.50;99.90;;;;;;5036197;28;20202;-81
2021/03/21 01:52:09;;;;;;;32.72;20.75;;;6.50;99.90;;;;;;5036626;28;20532;-81
2021/03/21 01:54:39;;;;;;;30.58;19.45;;;6.50;99.90;;;;;;5053389;28;20629;-81
2021/03/21 01:57:05;;;;;;;31.23;20.75;;;6.70;99.90;;;;;;5019763;28;20276;-80
2021/03/21 01:59:36;;;;;;;30.42;20.00;;;6.70;99.90;;;;;;5053591;28;20224;-80
2021/03/21 02:02:04;;;;;;;35.70;21.70;;;6.70;99.90;;;;;;5035958;28;20722;-81
2021/03/21 02:04:32;;;;;;;33.28;21.15;;;6.70;99.90;;;;;;5053768;28;20184;-80
2021/03/21 02:07:43;;;;;;;34.27;22.33;;;6.60;99.90;;;;;;5035833;28;20260;-80
2021/03/21 02:10:31;;;;;;;35.55;21.10;;;6.60;99.90;;;;;;5056697;28;20445;-81
2021/03/21 02:13:11;;;;;;;34.97;21.80;;;6.60;99.90;;;;;;5072500;28;20184;-82
2021/03/21 02:16:01;;;;;;;37.65;20.25;;;6.70;99.90;;;;;;5055397;28;20169;-81
2021/03/21 02:18:29;;;;;;;32.90;20.30;;;6.60;99.90;;;;;;5054964;28;20180;-81
2021/03/21 02:21:17;;;;;;;31.83;21.35;;;6.70;99.90;;;;;;5054328;28;20196;-81
2021/03/21 02:24:12;;;;;;;31.08;18.98;;;6.70;99.90;;;;;;5054177;28;20196;-81
2021/03/21 02:27:06;;;;;;;32.58;20.85;;;6.60;99.90;;;;;;5036922;28;20185;-81
2021/03/21 02:30:05;;;;;;;30.58;20.48;;;6.60;99.90;;;;;;5029572;28;20193;-81
2021/03/21 02:32:42;;;;;;;31.17;20.13;;;6.60;99.90;;;;;;5035140;28;20192;-81
2021/03/21 02:35:16;;;;;;;31.27;19.85;;;6.60;99.90;;;;;;5034937;28;20181;-81
2021/03/21 02:37:48;;;;;;;29.58;18.95;;;6.60;99.90;;;;;;5034631;28;20173;-82
2021/03/21 02:40:26;;;;;;;27.88;18.15;;;6.60;99.90;;;;;;5033810;28;20166;-81
2021/03/21 02:43:16;;;;;;;30.05;19.92;;;6.60;99.90;;;;;;5034648;28;20207;-81
2021/03/21 02:45:49;;;;;;;28.20;17.67;;;6.60;99.90;;;;;;5033962;28;20185;-81
2021/03/21 02:48:25;;;;;;;28.50;16.75;;;6.70;99.90;;;;;;5033619;28;20184;-82
2021/03/21 02:51:05;;;;;;;26.02;17.10;;;6.60;99.90;;;;;;5017408;28;20197;-82
2021/03/21 02:53:37;;;;;;;23.58;15.50;;;6.50;99.90;;;;;;5039852;28;20657;-81
2021/03/21 02:56:08;;;;;;;25.02;14.82;;;6.50;99.90;;;;;;5054611;28;20164;-81
2021/03/21 02:58:44;;;;;;;26.15;16.15;;;6.50;99.90;;;;;;5053550;28;20186;-81
2021/03/21 03:01:16;;;;;;;24.75;14.52;;;6.40;99.90;;;;;;5054578;28;20261;-81
2021/03/21 03:03:47;;;;;;;22.17;14.85;;;6.50;99.90;;;;;;5053279;28;20191;-81
2021/03/21 03:06:20;;;;;;;25.15;15.43;;;6.50;99.90;;;;;;5053229;28;20180;-81
2021/03/21 03:08:53;;;;;;;25.20;14.60;;;6.60;99.90;;;;;;5054401;28;20622;-80
2021/03/21 03:11:32;;;;;;;22.80;14.70;;;6.50;99.90;;;;;;5036512;28;20211;-80
2021/03/21 03:14:02;;;;;;;21.83;13.68;;;6.50;99.90;;;;;;5054055;28;20168;-81
2021/03/21 03:16:35;;;;;;;24.85;16.02;;;6.50;99.90;;;;;;5036550;28;20218;-80
2021/03/21 03:19:27;;;;;;;23.15;13.95;;;6.50;99.90;;;;;;5036411;28;20234;-81
2021/03/21 03:22:14;;;;;;;24.27;15.10;;;6.40;99.90;;;;;;5054205;28;20176;-82
2021/03/21 03:24:54;;;;;;;23.80;15.15;;;6.50;99.90;;;;;;5053221;28;20269;-81
2021/03/21 03:27:40;;;;;;;25.63;16.40;;;6.40;99.90;;;;;;5037428;28;20172;-81
2021/03/21 03:30:17;;;;;;;24.23;13.98;;;6.50;99.90;;;;;;5054100;28;20216;-81
2021/03/21 03:32:43;;;;;;;25.13;15.25;;;6.40;99.90;;;;;;5036367;28;20629;-82
2021/03/21 03:35:13;;;;;;;23.80;16.65;;;6.40;99.90;;;;;;5053654;28;20177;-82
2021/03/21 03:37:42;;;;;;;24.92;14.75;;;6.50;99.90;;;;;;5053569;28;20561;-81
2021/03/21 03:40:11;;;;;;;17.98;13.32;;;6.50;99.90;;;;;;5053702;28;20602;-81
2021/03/21 03:43:04;;;;;;;21.27;14.23;;;6.50;99.90;;;;;;5053594;28;20196;-81
2021/03/21 03:45:36;;;;;;;21.63;13.43;;;6.50;99.90;;;;;;5053313;28;20278;-81
2021/03/21 03:48:23;;;;;;;20.33;11.48;;;6.40;99.90;;;;;;5052759;28;20177;-81
2021/03/21 03:51:04;;;;;;;18.95;12.30;;;6.30;99.90;;;;;;5053792;28;20205;-81
2021/03/21 03:53:58;;;;;;;17.15;11.38;;;6.40;99.90;;;;;;5048357;28;20192;-81
2021/03/21 03:56:33;;;;;;;19.85;12.50;;;6.40;99.90;;;;;;5032989;28;20173;-81
2021/03/21 03:59:11;;;;;;;19.65;12.65;;;6.40;99.90;;;;;;5032736;28;20196;-80
2021/03/21 04:01:48;;;;;;;20.05;12.40;;;6.50;99.90;;;;;;5033933;28;20177;-81
2021/03/21 04:04:28;;;;;;;22.88;13.13;;;6.40;99.90;;;;;;5033539;28;20216;-80
2021/03/21 04:07:19;;;;;;;21.85;13.00;;;6.30;99.90;;;;;;5033845;28;20174;-80
2021/03/21 04:10:04;;;;;;;21.45;12.85;;;6.40;99.90;;;;;;5033718;28;20189;-81
2021/03/21 04:12:42;;;;;;;22.45;12.23;;;6.30;99.90;;;;;;5042107;28;20282;-81
2021/03/21 04:15:19;;;;;;;18.95;12.45;;;6.30;99.90;;;;;;5053259;28;20555;-80
2021/03/21 04:18:08;;;;;;;17.00;11.50;;;6.30;99.90;;;;;;5053287;28;20476;-82
2021/03/21 04:20:43;;;;;;;16.83;9.98;;;6.30;99.90;;;;;;5053357;28;20187;-81
2021/03/21 04:23:22;;;;;;;16.48;10.85;;;6.40;99.90;;;;;;5035963;28;20176;-81
2021/03/21 04:25:52;;;;;;;16.85;9.82;;;6.40;99.90;;;;;;5053245;28;20548;-81
2021/03/21 04:28:25;;;;;;;15.88;9.93;;;6.40;99.90;;;;;;5053187;28;20558;-81
2021/03/21 04:30:58;;;;;;;19.27;10.43;;;6.30;99.90;;;;;;5035704;28;20534;-82
2021/03/21 04:33:32;;;;;;;14.55;9.60;;;6.30;99.90;;;;;;5035922;28;20191;-81
2021/03/21 04:36:08;;;;;;;20.27;11.70;;;6.30;99.90;;;;;;5053775;28;20621;-81
2021/03/21 04:38:52;;;;;;;16.17;10.85;;;6.30;99.90;;;;;;5040044;28;20161;-81
2021/03/21 04:41:30;;;;;;;20.98;12.05;;;6.30;99.90;;;;;;5057142;28;20536;-81
2021/03/21 04:44:06;;;;;;;16.35;10.23;;;6.30;99.90;;;;;;5036761;28;20251;-82
2021/03/21 04:46:37;;;;;;;19.20;12.32;;;6.20;99.90;;;;;;5019523;28;20172;-82
2021/03/21 04:49:04;;;;;;;19.00;10.88;;;6.10;99.90;;;;;;5035971;28;20182;-82
2021/03/21 04:51:39;;;;;;;22.25;12.90;;;6.20;99.90;;;;;;5035721;28;20259;-81
2021/03/21 04:54:20;;;;;;;19.48;11.95;;;6.20;99.90;;;;;;5046785;28;20285;-81
2021/03/21 04:57:14;;;;;;;21.60;11.70;;;6.20;99.90;;;;;;5056567;28;20260;-81
2021/03/21 04:59:40;;;;;;;20.55;12.75;;;6.20;99.90;;;;;;5056785;28;20257;-81
2021/03/21 05:02:14;;;;;;;21.55;11.98;;;6.30;99.90;;;;;;5022510;28;20172;-81
2021/03/21 05:04:59;;;;;;;21.63;11.88;;;6.20;99.90;;;;;;5056464;28;20226;-82
2021/03/21 05:07:25;;;;;;;19.42;11.70;;;6.30;99.90;;;;;;5055533;28;20195;-82
2021/03/21 05:09:54;;;;;;;21.30;12.10;;;6.30;99.90;;;;;;5038910;28;20173;-82
2021/03/21 05:12:30;;;;;;;20.17;10.75;;;6.30;99.90;;;;;;5055161;28;20506;-81
2021/03/21 05:15:16;;;;;;;22.42;12.77;;;6.20;99.90;;;;;;5055816;28;20671;-82
2021/03/21 05:18:00;;;;;;;22.75;12.63;;;6.20;99.90;;;;;;5056098;28;20178;-82
2021/03/21 05:20:29;;;;;;;23.65;12.57;;;6.20;99.90;;;;;;5056021;28;20317;-82
2021/03/21 05:23:12;;;;;;;24.45;13.32;;;6.30;99.90;;;;;;5055943;28;20172;-82
2021/03/21 05:26:07;;;;;;;26.77;12.70;;;6.30;99.90;;;;;;5055969;28;20612;-81
2021/03/21 05:28:49;;;;;;;22.92;13.23;;;6.30;99.90;;;;;;5055891;28;20169;-81
2021/03/21 05:31:16;;;;;;;24.15;12.75;;;6.40;99.90;;;;;;5055803;28;20537;-82
2021/03/21 05:33:47;;;;;;;27.67;14.02;;;6.40;99.90;;;;;;5055770;28;20191;-81
2021/03/21 05:36:26;;;;;;;26.95;13.98;;;6.40;99.90;;;;;;5055809;28;20628;-82
2021/03/21 05:38:57;;;;;;;20.77;12.63;;;6.30;99.90;;;;;;5055965;28;20258;-81
2021/03/21 05:41:44;;;;;;;27.50;14.75;;;6.40;99.90;;;;;;5055690;28;20254;-81
2021/03/21 05:44:18;;;;;;;29.08;15.43;;;6.30;99.90;;;;;;5055010;28;20536;-81
2021/03/21 05:47:11;;;;;;;28.98;14.82;;;6.30;99.90;;;;;;5055611;28;20172;-82
2021/03/21 05:49:55;;;;;;;31.08;15.52;;;6.30;99.90;;;;;;5055357;28;20272;-81
2021/03/21 05:52:58;;;;;;;27.70;16.30;;;6.30;99.90;;;;;;5055363;28;20200;-82
2021/03/21 05:55:56;;;;;;;30.38;16.30;;;6.30;99.90;;;;;;5034750;28;20178;-81
2021/03/21 05:58:49;;;;;;;36.25;17.23;;;6.20;99.90;;;;;;5035458;28;20178;-82
2021/03/21 06:01:39;;;;;;;32.08;16.33;;;6.30;99.90;;;;;;5018182;28;20516;-81
2021/03/21 06:04:38;;;;;;;29.88;17.17;;;6.20;99.90;;;;;;5018310;28;20180;-81
2021/03/21 06:07:41;;;;;;;32.10;17.75;;;6.20;99.90;;;;;;5018321;28;20190;-81
2021/03/21 06:10:40;;;;;;;30.95;16.90;;;6.30;99.90;;;;;;5035413;28;20694;-81
2021/03/21 06:13:28;;;;;;;32.70;17.88;;;6.30;99.90;;;;;;5020539;28;20287;-81
2021/03/21 06:16:15;;;;;;;39.97;21.35;;;6.40;99.90;;;;;;5034990;28;20197;-81
2021/03/21 06:19:07;;;;;;;38.65;21.65;;;6.40;99.90;;;;;;5037672;28;20202;-82
2021/03/21 06:22:14;;;;;;;47.53;22.70;;;6.40;99.90;;;;;;5054803;28;20182;-81
2021/03/21 06:24:58;;;;;;;41.58;22.35;;;6.50;99.90;;;;;;5021553;28;20212;-81
2021/03/21 06:27:42;;;;;;;37.75;20.52;;;6.50;99.90;;;;;;5037424;28;20239;-81
2021/03/21 06:30:45;;;;;;;34.13;18.55;;;6.50;99.90;;;;;;5037446;28;20241;-81
2021/03/21 06:33:33;;;;;;;38.20;17.70;;;6.50;99.90;;;;;;5054669;28;20230;-81
2021/03/21 06:36:29;;;;;;;33.88;17.77;;;6.50;99.90;;;;;;5054618;28;20176;-82
2021/03/21 06:39:20;;;;;;;34.70;17.23;;;6.50;99.90;;;;;;5046469;28;20258;-82
2021/03/21 06:42:03;;;;;;;27.52;16.45;;;6.50;99.90;;;;;;5037471;28;20212;-82
2021/03/21 06:44:42;;;;;;;30.60;16.67;;;6.70;99.90;;;;;;5054365;28;20223;-81
2021/03/21 06:47:45;;;;;;;23.95;15.55;;;6.80;99.90;;;;;;5054830;28;20184;-82
2021/03/21 06:50:16;;;;;;;25.88;16.60;;;6.70;99.90;;;;;;5054488;28;20219;-82
2021/03/21 06:53:01;;;;;;;28.73;17.80;;;6.70;99.90;;;;;;5054320;28;20176;-81
2021/03/21 06:55:38;;;;;;;33.78;17.33;;;6.70;99.90;;;;;;5042085;28;20184;-81
2021/03/21 06:58:30;;;;;;;33.00;18.73;;;6.80;99.90;;;;;;5054302;28;20177;-82
2021/03/21 07:00:58;;;;;;;34.97;21.10;;;6.80;99.90;;;;;;5037239;28;20222;-82
2021/03/21 07:03:48;;;;;;;34.38;19.17;;;6.90;99.90;;;;;;5054559;28;20192;-82
2021/03/21 07:06:45;;;;;;;30.17;16.77;;;6.90;99.90;;;;;;5036832;28;20184;-82
2021/03/21 07:09:36;;;;;;;27.67;17.38;;;6.90;99.90;;;;;;5054240;28;20168;-81
2021/03/21 07:12:23;;;;;;;28.92;16.63;;;6.80;99.90;;;;;;5020043;28;20200;-81
2021/03/21 07:15:16;;;;;;;26.63;15.93;;;6.80;99.90;;;;;;5054007;28;20168;-82
2021/03/21 07:17:54;;;;;;;22.10;11.65;;;6.90;99.90;;;;;;5053983;28;20200;-82
2021/03/21 07:20:53;;;;;;;21.15;12.05;;;7.10;99.90;;;;;;5053987;28;20208;-82
2021/03/21 07:24:01;;;;;;;17.13;11.68;;;7.10;99.90;;;;;;5054120;28;20220;-81
2021/03/21 07:26:53;;;;;;;21.45;11.02;;;7.20;99.90;;;;;;5053656;28;20270;-82
2021/03/21 07:29:40;;;;;;;19.50;12.80;;;7.30;99.90;;;;;;5054124;28;20168;-82
2021/03/21 07:32:08;;;;;;;25.05;12.35;;;7.40;99.90;;;;;;5053732;28;20200;-82
2021/03/21 07:34:59;;;;;;;27.35;16.13;;;7.40;99.90;;;;;;5054026;28;20178;-82
2021/03/21 07:37:43;;;;;;;26.02;17.05;;;7.40;99.90;;;;;;5036752;28;20169;-83
2021/03/21 07:40:30;;;;;;;23.80;15.32;;;7.40;99.90;;;;;;5052974;28;20188;-82
2021/03/21 07:43:34;;;;;;;26.42;15.25;;;7.40;99.90;;;;;;5036333;28;20626;-83
2021/03/21 07:46:20;;;;;;;24.10;15.27;;;7.30;99.90;;;;;;5042317;28;20201;-82
2021/03/21 07:49:07;;;;;;;27.05;14.40;;;7.30;99.90;;;;;;5017049;28;20221;-81
2021/03/21 07:52:10;;;;;;;25.63;14.95;;;7.20;99.90;;;;;;5034190;28;20217;-81
2021/03/21 07:54:44;;;;;;;22.55;12.75;;;7.10;99.90;;;;;;5034799;28;20188;-80
2021/03/21 07:57:29;;;;;;;23.83;14.82;;;7.10;99.90;;;;;;5036096;28;20242;-80
2021/03/21 08:00:00;;;;;;;22.35;13.95;;;7.00;99.90;;;;;;5053342;28;20205;-80
2021/03/21 08:02:29;;;;;;;20.35;12.63;;;7.10;99.90;;;;;;5036127;28;20275;-80
2021/03/21 08:05:08;;;;;;;16.05;10.73;;;7.00;99.90;;;;;;5036222;28;20279;-80
2021/03/21 08:07:46;;;;;;;14.63;9.88;;;7.00;99.90;;;;;;5036152;28;20188;-80
2021/03/21 08:10:51;;;;;;;14.30;8.80;;;7.00;99.90;;;;;;5049317;28;20553;-80
2021/03/21 08:13:33;;;;;;;17.88;8.48;;;7.00;99.90;;;;;;5019690;28;20189;-80
2021/03/21 08:16:03;;;;;;;10.65;6.72;;;7.10;99.90;;;;;;5044960;28;20215;-81
2021/03/21 08:18:37;;;;;;;9.50;5.88;;;7.30;99.90;;;;;;5040445;28;20208;-80
2021/03/21 08:21:17;;;;;;;10.03;6.00;;;7.20;99.90;;;;;;5057365;28;20563;-80
2021/03/21 08:23:48;;;;;;;8.35;5.47;;;7.40;99.90;;;;;;5023308;28;20439;-79
2021/03/21 08:26:31;;;;;;;14.68;6.00;;;7.40;99.90;;;;;;5056431;28;20712;-80
2021/03/21 08:29:06;;;;;;;12.40;5.82;;;7.50;99.90;;;;;;5056451;28;20187;-80
2021/03/21 08:32:09;;;;;;;6.90;5.05;;;7.60;99.90;;;;;;5039679;28;20295;-79
2021/03/21 08:35:13;;;;;;;7.63;5.28;;;7.70;99.90;;;;;;5056520;28;20208;-80
2021/03/21 08:37:50;;;;;;;5.63;3.90;;;7.70;99.90;;;;;;5056222;28;20215;-80
2021/03/21 08:40:28;;;;;;;8.85;3.90;;;7.70;99.90;;;;;;5057009;28;20447;-80
2021/03/21 08:43:26;;;;;;;9.23;3.20;;;7.80;99.90;;;;;;5039754;28;20264;-80
2021/03/21 08:46:21;;;;;;;7.33;4.00;;;7.80;99.90;;;;;;5051151;28;20416;-80
2021/03/21 08:49:15;;;;;;;6.70;3.33;;;7.60;99.90;;;;;;5035083;28;20491;-82
2021/03/21 08:51:44;;;;;;;5.50;3.00;;;7.40;99.90;;;;;;5019402;28;20216;-80
2021/03/21 08:54:27;;;;;;;7.32;3.47;;;7.20;99.90;;;;;;5047479;28;20188;-81
2021/03/21 08:57:27;;;;;;;8.40;2.97;;;7.10;99.90;;;;;;5039444;28;20168;-80
2021/03/21 09:00:14;;;;;;;13.70;3.92;;;7.10;99.90;;;;;;5049354;28;20205;-81
2021/03/21 09:02:45;;;;;;;8.90;4.03;;;7.00;99.90;;;;;;5039681;28;20189;-81
2021/03/21 09:05:20;;;;;;;11.35;3.00;;;6.90;99.90;;;;;;5038794;28;20286;-80
2021/03/21 09:07:49;;;;;;;5.97;3.20;;;6.80;99.90;;;;;;5022799;28;20209;-81
2021/03/21 09:10:56;;;;;;;8.13;2.77;;;6.80;99.90;;;;;;5039090;28;20234;-82
2021/03/21 09:13:33;;;;;;;13.35;3.40;;;6.90;99.90;;;;;;5029575;28;20880;-80
2021/03/21 09:16:10;;;;;;;9.30;2.92;;;7.10;99.90;;;;;;5055523;28;20165;-80
2021/03/21 09:18:44;;;;;;;11.37;2.70;;;7.20;99.90;;;;;;5055324;28;20572;-79
2021/03/21 09:21:27;;;;;;;9.43;2.80;;;7.20;99.90;;;;;;5038942;28;20517;-79
2021/03/21 09:24:07;;;;;;;13.27;3.33;;;7.20;99.90;;;;;;5021130;28;20199;-82
2021/03/21 09:26:39;;;;;;;7.07;3.25;;;7.20;99.90;;;;;;5056438;28;20184;-79
2021/03/21 09:29:16;;;;;;;7.22;3.25;;;7.30;99.90;;;;;;5056156;28;20599;-82
2021/03/21 09:31:49;;;;;;;11.45;3.50;;;7.40;99.90;;;;;;5055371;28;20206;-82
2021/03/21 09:34:33;;;;;;;10.35;4.05;;;7.30;99.90;;;;;;5056073;28;20169;-80
2021/03/21 09:37:11;;;;;;;8.43;3.78;;;7.40;99.90;;;;;;5055344;28;20196;-79
2021/03/21 09:39:59;;;;;;;8.95;3.63;;;7.30;99.90;;;;;;5039128;28;20170;-80
2021/03/21 09:42:30;;;;;;;10.50;4.10;;;7.50;99.90;;;;;;5055987;28;20170;-80
2021/03/21 09:44:59;;;;;;;6.18;3.50;;;7.50;99.90;;;;;;5038540;28;20264;-79
2021/03/21 09:47:39;;;;;;;7.55;3.50;;;7.60;99.90;;;;;;5056115;28;20176;-80
2021/03/21 09:50:16;;;;;;;7.07;3.72;;;7.60;99.90;;;;;;5038730;28;20183;-80
2021/03/21 09:52:56;;;;;;;13.85;4.78;;;7.60;99.90;;;;;;5037439;28;20212;-80
2021/03/21 09:55:47;;;;;;;7.23;3.07;;;7.80;99.90;;;;;;5018820;28;20229;-80
2021/03/21 09:58:38;;;;;;;11.53;3.37;;;7.80;99.90;;;;;;5018687;28;20444;-79
2021/03/21 10:01:29;;;;;;;8.32;4.00;;;7.70;99.90;;;;;;5035632;28;20482;-79
2021/03/21 10:04:17;;;;;;;10.13;3.08;;;7.70;99.90;;;;;;5035583;28;20584;-82
2021/03/21 10:06:51;;;;;;;5.53;3.42;;;7.70;99.90;;;;;;5001858;28;20574;-82
2021/03/21 10:09:23;;;;;;;21.02;4.18;;;7.80;99.90;;;;;;5018315;28;20619;-80
2021/03/21 10:12:04;;;;;;;13.53;3.57;;;7.90;99.90;;;;;;5034454;28;20642;-79
2021/03/21 10:14:31;;;;;;;10.17;3.63;;;8.00;99.90;;;;;;5052275;28;20470;-81
2021/03/21 10:17:21;;;;;;;9.10;3.73;;;8.00;99.90;;;;;;5038229;28;20500;-80
2021/03/21 10:19:56;;;;;;;10.60;4.33;;;8.10;99.90;;;;;;5050816;28;20421;-80
2021/03/21 10:22:28;;;;;;;8.93;3.87;;;8.20;99.90;;;;;;5034342;28;20447;-79
2021/03/21 10:25:23;;;;;;;13.57;4.47;;;8.20;99.90;;;;;;5061494;28;20432;-80
2021/03/21 10:27:54;;;;;;;9.90;4.75;;;8.30;99.90;;;;;;5054721;28;20447;-82
2021/03/21 10:30:30;;;;;;;11.00;4.80;;;8.20;99.90;;;;;;5054929;28;20178;-80
2021/03/21 10:33:00;;;;;;;14.80;5.60;;;8.20;99.90;;;;;;5038028;28;20459;-80
2021/03/21 10:35:30;;;;;;;12.80;4.93;;;8.20;99.90;;;;;;5056902;28;20429;-82
2021/03/21 10:37:59;;;;;;;14.55;4.80;;;8.10;99.90;;;;;;5049655;28;20452;-80
2021/03/21 10:40:25;;;;;;;19.53;4.80;;;8.10;99.90;;;;;;5054311;28;20195;-79
2021/03/21 10:43:00;;;;;;;20.23;5.10;;;8.20;99.90;;;;;;5021151;28;20512;-79
2021/03/21 10:45:34;;;;;;;13.50;4.30;;;8.10;99.90;;;;;;5052662;28;20435;-80
2021/03/21 10:48:26;;;;;;;19.07;4.60;;;8.20;99.90;;;;;;5054581;28;20466;-80
2021/03/21 10:50:55;;;;;;;11.70;4.80;;;8.40;99.90;;;;;;5043599;28;20526;-80
2021/03/21 10:53:23;;;;;;;16.90;4.95;;;8.50;99.90;;;;;;5054042;28;20429;-79
2021/03/21 10:56:01;;;;;;;9.40;4.70;;;8.50;99.90;;;;;;5053909;28;20619;-80
2021/03/21 10:58:40;;;;;;;14.93;5.00;;;8.60;99.90;;;;;;5020632;28;20496;-80
2021/03/21 11:01:20;;;;;;;13.87;4.90;;;8.60;99.90;;;;;;5019901;28;20512;-79
2021/03/21 11:04:00;;;;;;;14.90;5.90;;;8.40;99.90;;;;;;5035841;28;20836;-78
2021/03/21 11:06:47;;;;;;;15.33;5.47;;;8.50;99.90;;;;;;5027067;28;20431;-79
2021/03/21 11:09:16;;;;;;;14.60;5.03;;;8.50;99.90;;;;;;5037435;28;20443;-79
2021/03/21 11:11:50;;;;;;;15.80;5.30;;;8.40;99.90;;;;;;5042859;28;20487;-79
2021/03/21 11:14:24;;;;;;;11.80;5.10;;;8.50;99.90;;;;;;5019484;28;20432;-79
2021/03/21 11:17:00;;;;;;;19.67;5.33;;;8.50;99.90;;;;;;5052558;28;20499;-79
2021/03/21 11:19:33;;;;;;;10.63;5.63;;;8.50;99.90;;;;;;5036254;28;20399;-79
2021/03/21 11:22:10;;;;;;;18.87;6.47;;;8.50;99.90;;;;;;5032846;28;20981;-81
2021/03/21 11:24:41;;;;;;;18.10;6.73;;;8.30;99.90;;;;;;5048301;28;20531;-79
2021/03/21 11:27:23;;;;;;;15.20;5.50;;;8.30;99.90;;;;;;5053721;28;20426;-80
2021/03/21 11:29:53;;;;;;;14.50;5.90;;;8.30;99.90;;;;;;5016642;28;20428;-80
2021/03/21 11:32:29;;;;;;;15.53;5.77;;;8.20;99.90;;;;;;5037285;28;20532;-79
2021/03/21 11:35:03;;;;;;;15.50;5.97;;;8.30;99.90;;;;;;5036013;28;20728;-79
2021/03/21 11:37:37;;;;;;;15.17;5.87;;;8.30;99.90;;;;;;5016222;28;20438;-79
2021/03/21 11:40:22;;;;;;;17.63;5.87;;;8.40;99.90;;;;;;5032903;28;20861;-80
2021/03/21 11:43:23;;;;;;;22.40;5.93;;;8.40;99.90;;;;;;5044869;28;20431;-79
2021/03/21 11:45:50;;;;;;;19.53;6.57;;;8.50;99.90;;;;;;5008953;28;20477;-80
2021/03/21 11:48:31;;;;;;;14.43;6.90;;;8.50;99.90;;;;;;5014130;28;20838;-80
2021/03/21 11:51:01;;;;;;;12.83;5.80;;;8.60;99.90;;;;;;5012732;28;20592;-79
2021/03/21 11:53:39;;;;;;;15.97;6.10;;;8.60;99.90;;;;;;5012026;28;20586;-79
2021/03/21 11:56:18;;;;;;;23.67;7.67;;;8.60;99.90;;;;;;5012269;28;20571;-80
2021/03/21 11:59:10;;;;;;;18.00;7.60;;;8.70;99.90;;;;;;5009620;28;20430;-80
2021/03/21 12:01:44;;;;;;;13.50;5.30;;;9.00;99.90;;;;;;5002877;28;20468;-79
2021/03/21 12:04:24;;;;;;;22.57;8.90;;;9.20;99.90;;;;;;5011883;28;20450;-80
2021/03/21 12:07:01;;;;;;;18.97;6.83;;;9.40;99.90;;;;;;5026802;28;20524;-79
2021/03/21 12:09:34;;;;;;;14.30;6.70;;;9.60;99.90;;;;;;4995641;28;20471;-80
2021/03/21 12:12:05;;;;;;;16.70;6.63;;;9.60;99.90;;;;;;5012356;28;20557;-80
2021/03/21 12:14:46;;;;;;;18.50;7.50;;;9.50;99.90;;;;;;5013244;28;20422;-80
2021/03/21 12:17:25;;;;;;;22.43;7.20;;;9.40;99.90;;;;;;5012935;28;20430;-80
2021/03/21 12:19:54;;;;;;;18.27;6.10;;;9.40;99.90;;;;;;5013776;28;20407;-81
2021/03/21 12:22:39;;;;;;;15.27;6.60;;;9.50;99.90;;;;;;5001563;28;20469;-80
2021/03/21 12:25:36;;;;;;;18.50;7.60;;;9.40;99.90;;;;;;4995403;28;20444;-81
2021/03/21 12:28:19;;;;;;;14.87;6.17;;;9.30;99.50;;;;;;5005523;28;20454;-81
2021/03/21 12:30:52;;;;;;;19.70;6.93;;;9.40;99.90;;;;;;5001920;28;20454;-80
2021/03/21 12:33:33;;;;;;;18.23;7.97;;;9.50;99.80;;;;;;5012197;28;20419;-79
2021/03/21 12:36:08;;;;;;;22.87;8.63;;;9.40;98.80;;;;;;5011172;28;20429;-79
2021/03/21 12:38:59;;;;;;;20.17;7.90;;;9.40;97.80;;;;;;5009605;28;20411;-80
2021/03/21 12:41:39;;;;;;;21.27;7.40;;;9.30;98.70;;;;;;5012596;28;20521;-80
2021/03/21 12:44:27;;;;;;;19.00;7.20;;;9.20;99.80;;;;;;5024762;28;20474;-79
2021/03/21 12:47:33;;;;;;;17.00;7.67;;;9.20;99.90;;;;;;5034337;28;20448;-79
2021/03/21 12:50:24;;;;;;;17.07;7.10;;;9.30;99.90;;;;;;5048538;28;20466;-80
2021/03/21 12:52:51;;;;;;;17.93;6.90;;;9.30;99.70;;;;;;5032629;28;20465;-80
2021/03/21 12:55:27;;;;;;;21.47;7.10;;;9.20;98.60;;;;;;5015331;28;20761;-79
2021/03/21 12:57:53;;;;;;;19.67;8.70;;;9.30;98.10;;;;;;5034816;28;20473;-79
2021/03/21 13:00:27;;;;;;;20.77;8.13;;;9.40;99.60;;;;;;5036508;28;20469;-79
2021/03/21 13:02:59;;;;;;;22.90;7.17;;;9.60;98.70;;;;;;5036643;28;20397;-80
2021/03/21 13:05:29;;;;;;;15.13;6.77;;;9.70;98.60;;;;;;5036039;28;20442;-80
2021/03/21 13:07:56;;;;;;;19.70;6.40;;;9.70;98.20;;;;;;5035754;28;20541;-80
2021/03/21 13:10:24;;;;;;;15.10;5.60;;;9.60;96.90;;;;;;5036186;28;20496;-81
2021/03/21 13:12:51;;;;;;;25.50;7.90;;;9.60;97.30;;;;;;5032794;28;20528;-80
2021/03/21 13:15:20;;;;;;;14.10;6.70;;;9.60;97.10;;;;;;5031675;28;20461;-80
2021/03/21 13:17:52;;;;;;;15.80;7.40;;;9.70;98.10;;;;;;5033683;28;20430;-81
2021/03/21 13:20:22;;;;;;;21.83;7.10;;;9.80;98.00;;;;;;5034990;28;20434;-80
2021/03/21 13:22:52;;;;;;;12.47;6.07;;;10.00;96.30;;;;;;5034182;28;20423;-80
2021/03/21 13:25:39;;;;;;;18.83;6.23;;;10.00;96.10;;;;;;5017313;28;20435;-79
2021/03/21 13:28:19;;;;;;;17.80;7.00;;;9.80;96.60;;;;;;5036018;28;20426;-81
2021/03/21 13:30:49;;;;;;;12.77;7.20;;;9.80;96.70;;;;;;5035789;28;20907;-79
2021/03/21 13:33:22;;;;;;;20.43;6.97;;;9.90;97.40;;;;;;5034657;28;20406;-79
2021/03/21 13:35:52;;;;;;;17.47;6.53;;;9.90;97.00;;;;;;5035671;28;20415;-80
2021/03/21 13:38:27;;;;;;;24.93;7.67;;;9.90;98.60;;;;;;5035324;28;20431;-80
2021/03/21 13:40:58;;;;;;;18.50;6.57;;;9.70;97.50;;;;;;5035094;28;20445;-82
2021/03/21 13:43:31;;;;;;;21.87;5.27;;;9.60;98.60;;;;;;5039156;28;20781;-82